Time;durP1;ratioP1;P1;durP2;ratioP2;P2;SDS_P1;SDS_P2;PMS_P1;PMS_P2;Temp;Humidity;BMP_temperature;BMP_pressure;BME280_temperature;BME280_humidity;BME280_pressure;Samples;Min_cycle;Max_cycle;Signal;HPM_P1;HPM_P2
2023/10/21 00:02:28;;;;;;;2.50;2.30;;;;;;;14.47;98.28;96301.81;7256922;40;20261;31
2023/10/21 00:08:03;;;;;;;4.60;2.40;;;;;;;14.52;97.82;96320.00;7277733;39;20247;31
2023/10/21 00:13:38;;;;;;;4.57;2.10;;;;;;;14.44;98.58;96318.56;7298304;39;20253;31
2023/10/21 00:19:14;;;;;;;6.03;1.70;;;;;;;14.37;99.23;96340.50;7256816;40;20339;31
2023/10/21 00:24:49;;;;;;;1.90;1.40;;;;;;;14.38;98.86;96339.41;7213051;40;20265;31
2023/10/21 00:30:15;;;;;;;2.80;1.35;;;;;;;14.45;99.25;96369.00;7216096;40;20367;31
2023/10/21 00:35:51;;;;;;;1.60;1.23;;;;;;;14.42;99.59;96372.22;7244309;40;20233;31
2023/10/21 00:41:12;;;;;;;0.80;0.80;;;;;;;14.49;99.82;96385.53;7241295;40;20251;31
2023/10/21 00:46:46;;;;;;;1.53;0.90;;;;;;;14.46;99.35;96389.59;7271203;39;20264;31
2023/10/21 00:52:22;;;;;;;0.97;0.80;;;;;;;14.44;99.99;96400.69;7246384;40;20254;31
2023/10/21 00:57:57;;;;;;;0.60;0.60;;;;;;;14.51;98.44;96432.19;7245928;40;20241;31
2023/10/21 01:03:32;;;;;;;0.63;0.60;;;;;;;14.52;98.25;96455.50;7247879;40;20263;31
2023/10/21 01:09:08;;;;;;;0.50;0.50;;;;;;;14.54;98.15;96456.06;7270979;40;20264;31
2023/10/21 01:14:43;;;;;;;0.90;0.70;;;;;;;14.58;96.57;96465.31;7192093;40;20258;31
2023/10/21 01:20:18;;;;;;;0.60;0.60;;;;;;;14.61;95.58;96483.78;7209511;40;20250;31
2023/10/21 01:25:52;;;;;;;0.40;0.40;;;;;;;14.62;94.98;96496.25;7212030;40;20278;31
2023/10/21 01:31:27;;;;;;;0.63;0.63;;;;;;;14.64;94.98;96519.31;7196174;40;20360;31
2023/10/21 01:37:02;;;;;;;1.37;0.63;;;;;;;14.67;94.27;96517.97;7228698;40;20277;31
2023/10/21 01:47:43;;;;;;;0.67;0.60;;;;;;;14.66;93.77;96557.81;7217827;40;20276;31
2023/10/21 01:58:08;;;;;;;1.20;0.67;;;;;;;14.69;94.12;96586.34;7268322;40;20373;31
2023/10/21 02:08:48;;;;;;;1.07;0.60;;;;;;;14.71;94.09;96614.00;7310749;39;20272;31
2023/10/21 02:19:13;;;;;;;0.70;0.70;;;;;;;14.75;93.02;96625.97;7318698;39;20273;31
2023/10/21 02:29:52;;;;;;;1.23;0.80;;;;;;;14.73;91.99;96664.19;7351437;39;20263;31
2023/10/21 02:40:17;;;;;;;0.93;0.50;;;;;;;14.75;93.45;96689.16;7294880;39;20361;31
2023/10/21 02:50:57;;;;;;;0.70;0.70;;;;;;;14.79;92.94;96722.00;7274440;39;20263;31
2023/10/21 02:56:18;;;;;;;0.77;0.60;;;;;;;14.80;92.93;96729.06;7337670;39;20271;31
2023/10/21 03:07:52;;;;;;;1.40;1.23;;;;;;;14.77;92.66;96757.53;7299581;39;21414;31
2023/10/21 03:13:27;;;;;;;1.75;0.55;;;;;;;14.81;92.65;96779.53;7245569;40;20270;31
2023/10/21 03:18:48;;;;;;;1.60;0.65;;;;;;;14.79;91.82;96787.09;7246112;40;20323;31
2023/10/21 03:24:22;;;;;;;3.55;0.90;;;;;;;14.73;90.46;96797.06;7242015;40;20261;31
2023/10/21 03:29:57;;;;;;;0.70;0.70;;;;;;;14.75;90.15;96813.88;7270164;39;20253;31
2023/10/21 03:35:33;;;;;;;2.17;0.90;;;;;;;14.75;90.36;96816.59;7249324;40;20257;31
2023/10/21 03:41:12;;;;;;;2.17;0.83;;;;;;;14.75;89.85;96835.59;7271893;39;20298;31
2023/10/21 03:46:45;;;;;;;1.50;0.70;;;;;;;14.80;90.21;96851.09;7047792;40;20291;31
2023/10/21 03:52:06;;;;;;;0.90;0.75;;;;;;;14.79;90.10;96860.31;7245177;40;20270;31
2023/10/21 04:02:47;;;;;;;2.47;0.77;;;;;;;14.78;90.27;96872.25;7246451;40;20335;31
2023/10/21 04:08:07;;;;;;;1.03;0.70;;;;;;;14.78;89.95;96893.94;7274449;39;20249;31
2023/10/21 04:13:28;;;;;;;1.45;0.90;;;;;;;14.78;90.36;96891.22;7306924;39;20250;31
2023/10/21 04:19:04;;;;;;;1.60;1.00;;;;;;;14.76;90.26;96896.88;7316743;39;20260;31
2023/10/21 04:24:39;;;;;;;0.63;0.60;;;;;;;14.80;90.51;96905.34;7228330;40;20350;31
2023/10/21 04:30:14;;;;;;;1.03;0.90;;;;;;;14.81;89.62;96915.13;7201825;40;20336;31
2023/10/21 04:35:49;;;;;;;2.43;0.90;;;;;;;14.79;90.32;96918.09;7195224;40;20302;31
2023/10/21 04:41:10;;;;;;;1.27;0.80;;;;;;;14.82;89.87;96927.63;7159770;40;20246;31
2023/10/21 04:46:45;;;;;;;1.83;0.90;;;;;;;14.79;89.04;96942.50;7164592;40;20246;31
2023/10/21 04:52:21;;;;;;;1.60;0.80;;;;;;;14.81;89.49;96955.81;7162962;40;20239;31
2023/10/21 04:57:41;;;;;;;0.80;0.80;;;;;;;14.83;88.85;96968.03;7227743;40;20270;31
2023/10/21 05:03:17;;;;;;;1.40;0.97;;;;;;;14.85;88.13;96973.22;7246771;40;20238;31
2023/10/21 05:08:53;;;;;;;1.40;1.00;;;;;;;14.82;89.27;96990.84;7228717;40;20258;31
2023/10/21 05:14:11;;;;;;;0.90;0.80;;;;;;;14.85;87.41;97003.06;7235278;40;20257;31
2023/10/21 05:19:32;;;;;;;0.80;0.70;;;;;;;14.81;87.95;97012.75;7246998;40;20256;31
2023/10/21 05:25:09;;;;;;;1.10;0.80;;;;;;;14.78;88.38;97026.84;7264385;40;20294;31
2023/10/21 05:30:43;;;;;;;1.70;1.60;;;;;;;14.75;88.27;97032.72;7273969;39;21623;31
2023/10/21 05:36:18;;;;;;;1.60;1.00;;;;;;;14.78;87.85;97070.22;7276340;40;20264;31
2023/10/21 05:41:54;;;;;;;1.10;0.97;;;;;;;14.69;88.64;97082.53;7217198;40;20249;31
2023/10/21 05:47:29;;;;;;;1.37;0.90;;;;;;;14.62;90.23;97088.09;7195788;40;20278;31
2023/10/21 05:58:10;;;;;;;1.67;1.10;;;;;;;14.61;88.42;97118.19;7237237;40;20358;31
2023/10/21 06:03:46;;;;;;;1.60;0.80;;;;;;;14.63;88.20;97126.87;7197601;40;20320;31
2023/10/21 06:09:22;;;;;;;2.23;1.30;;;;;;;14.63;88.23;97145.88;7245959;40;20396;31
2023/10/21 06:14:58;;;;;;;1.00;0.90;;;;;;;14.62;86.83;97155.88;7217357;40;20746;31
2023/10/21 06:20:34;;;;;;;1.60;1.10;;;;;;;14.61;86.85;97167.78;7179064;40;20247;31
2023/10/21 06:26:09;;;;;;;1.20;0.85;;;;;;;14.62;85.44;97190.31;7198934;40;20285;31
2023/10/21 06:31:46;;;;;;;0.60;0.60;;;;;;;14.63;85.26;97213.66;7174689;40;20651;31
2023/10/21 06:37:21;;;;;;;1.77;0.80;;;;;;;14.67;85.21;97222.94;7197652;40;20844;31
2023/10/21 06:48:04;;;;;;;2.00;0.80;;;;;;;14.69;85.95;97240.66;7216495;39;20261;31
2023/10/21 06:58:47;;;;;;;3.00;1.00;;;;;;;14.70;85.36;97260.47;7302649;39;20372;31
2023/10/21 07:04:19;;;;;;;1.95;1.10;;;;;;;14.69;83.84;97269.66;7281210;39;20257;31
2023/10/21 07:09:54;;;;;;;2.80;1.57;;;;;;;14.72;83.37;97288.13;7212642;40;20362;31
2023/10/21 07:15:14;;;;;;;2.25;1.30;;;;;;;14.71;82.71;97291.91;7261454;40;20741;31
2023/10/21 07:20:51;;;;;;;2.60;1.30;;;;;;;14.64;80.71;97315.63;7221044;40;20949;31
2023/10/21 07:26:26;;;;;;;3.00;1.00;;;;;;;14.62;80.93;97315.88;7173959;40;20896;31
2023/10/21 07:31:46;;;;;;;1.40;0.90;;;;;;;14.66;81.08;97332.47;7136433;40;20377;31
2023/10/21 07:37:23;;;;;;;2.93;1.10;;;;;;;14.73;77.63;97342.16;7217140;40;20274;31
2023/10/21 07:42:58;;;;;;;1.80;1.20;;;;;;;14.89;76.74;97354.13;7244999;40;20264;31
2023/10/21 07:48:33;;;;;;;5.80;1.27;;;;;;;14.95;76.68;97342.34;7192925;40;20739;31
2023/10/21 07:54:10;;;;;;;1.53;1.10;;;;;;;14.99;75.83;97362.50;7196421;40;20247;31
2023/10/21 07:59:45;;;;;;;2.30;1.20;;;;;;;15.02;75.34;97362.00;7158558;40;21423;31
2023/10/21 08:05:24;;;;;;;2.75;1.25;;;;;;;15.18;75.53;97371.31;7167870;40;20247;31
2023/10/21 08:10:57;;;;;;;2.15;1.30;;;;;;;15.33;75.28;97374.31;7209323;40;20274;31
2023/10/21 08:16:34;;;;;;;4.03;1.93;;;;;;;15.45;73.76;97376.97;7176184;40;20245;31
2023/10/21 08:22:08;;;;;;;3.13;1.87;;;;;;;15.42;72.78;97413.59;7233401;40;20759;31
2023/10/21 08:27:45;;;;;;;4.43;1.90;;;;;;;15.41;72.43;97408.38;7248431;39;20267;31
2023/10/21 08:33:20;;;;;;;3.67;1.60;;;;;;;15.44;73.25;97407.94;7266784;39;20750;31
2023/10/21 08:44:02;;;;;;;2.20;1.10;;;;;;;15.52;73.28;97432.84;7262809;40;20273;31
2023/10/21 08:49:37;;;;;;;2.30;1.40;;;;;;;15.53;72.60;97428.22;7245285;40;20257;31
2023/10/21 08:54:58;;;;;;;2.87;1.40;;;;;;;15.64;73.06;97436.31;7270176;40;20347;31
2023/10/21 09:00:34;;;;;;;3.47;1.42;;;;;;;15.65;72.15;97450.75;7254242;40;20417;31
2023/10/21 09:06:17;;;;;;;1.50;1.03;;;;;;;15.65;71.82;97448.03;7189131;40;20251;31
2023/10/21 09:11:51;;;;;;;1.90;1.10;;;;;;;15.77;71.80;97456.94;7185076;40;20325;31
2023/10/21 09:17:28;;;;;;;3.50;1.10;;;;;;;15.72;71.51;97478.56;7210305;40;20383;31
2023/10/21 09:22:49;;;;;;;3.97;1.40;;;;;;;15.75;70.97;97486.25;7254930;40;20780;31
2023/10/21 09:28:09;;;;;;;2.73;1.30;;;;;;;15.77;71.23;97484.13;7284665;39;20306;31
2023/10/21 09:33:45;;;;;;;2.70;1.30;;;;;;;15.89;70.34;97482.16;7301841;39;21386;31
2023/10/21 09:39:21;;;;;;;2.63;1.20;;;;;;;16.11;69.61;97488.56;7225594;40;20750;31
2023/10/21 09:50:01;;;;;;;6.10;1.20;;;;;;;16.47;66.70;97494.66;7237092;40;20281;31
2023/10/21 09:55:35;;;;;;;5.70;1.10;;;;;;;16.58;64.73;97485.63;7239081;40;20397;31
2023/10/21 10:01:12;;;;;;;3.50;1.20;;;;;;;16.71;65.30;97493.47;7255762;40;20257;31
2023/10/21 10:06:48;;;;;;;2.37;0.90;;;;;;;16.89;62.57;97495.94;7238171;40;20242;31
2023/10/21 10:12:24;;;;;;;2.40;1.00;;;;;;;16.96;62.36;97493.03;7189947;40;20269;31
2023/10/21 10:18:04;;;;;;;4.20;1.30;;;;;;;17.07;63.18;97479.31;7207289;40;20382;31
2023/10/21 10:23:40;;;;;;;3.53;1.37;;;;;;;17.06;61.30;97496.75;7196360;40;20247;31
2023/10/21 10:29:30;;;;;;;3.50;1.20;;;;;;;17.11;63.02;97496.78;7230385;40;20263;31
2023/10/21 10:35:07;;;;;;;3.20;1.25;;;;;;;17.08;61.40;97513.63;7031962;40;20345;31
2023/10/21 10:40:50;;;;;;;2.47;1.10;;;;;;;17.00;62.45;97502.34;7216568;40;20903;31
2023/10/21 10:46:24;;;;;;;2.00;1.17;;;;;;;17.11;63.19;97513.12;7206457;40;20256;31
2023/10/21 10:51:45;;;;;;;1.63;1.07;;;;;;;17.31;61.00;97512.62;7240412;40;20263;31
2023/10/21 10:57:21;;;;;;;1.55;0.90;;;;;;;17.42;61.47;97505.41;7257213;40;20245;31
2023/10/21 11:02:59;;;;;;;2.00;1.07;;;;;;;17.46;61.31;97512.81;7228201;40;20367;31
2023/10/21 11:08:19;;;;;;;2.77;1.30;;;;;;;17.47;60.83;97494.56;7230244;40;20254;31
2023/10/21 11:13:56;;;;;;;1.85;1.10;;;;;;;17.51;59.38;97501.97;7238122;40;20251;31
2023/10/21 11:19:31;;;;;;;2.60;1.30;;;;;;;17.61;58.68;97516.84;7202061;40;20338;31
2023/10/21 11:25:06;;;;;;;3.33;1.30;;;;;;;17.63;58.53;97515.53;7296580;39;20263;31
2023/10/21 11:30:42;;;;;;;1.97;1.20;;;;;;;17.58;58.24;97515.47;7246694;40;20239;31
2023/10/21 11:36:18;;;;;;;3.87;1.30;;;;;;;17.66;59.40;97506.84;7247132;40;20256;31
2023/10/21 11:41:57;;;;;;;2.93;1.20;;;;;;;17.73;58.07;97504.75;7296892;40;20245;31
2023/10/21 11:47:33;;;;;;;3.80;1.30;;;;;;;17.68;57.77;97512.06;7258364;40;20275;31
2023/10/21 11:52:53;;;;;;;3.23;1.10;;;;;;;17.56;59.28;97509.41;7236104;40;20392;31
2023/10/21 12:21:38;;;;;;;2.75;1.00;;;;;;;18.28;55.71;97531.84;7263336;40;20264;31
2023/10/21 12:26:55;;;;;;;4.13;1.20;;;;;;;18.41;54.29;97536.91;7246354;40;20257;31
2023/10/21 12:32:43;;;;;;;2.65;1.20;;;;;;;18.50;53.06;97534.53;7266373;39;20334;31
2023/10/21 12:38:23;;;;;;;3.50;1.20;;;;;;;18.60;53.84;97542.84;7210489;40;20238;31
2023/10/21 12:44:00;;;;;;;2.75;1.00;;;;;;;18.58;53.80;97545.00;7149783;40;20410;31
2023/10/21 12:49:20;;;;;;;35.37;22.63;;;;;;;18.62;52.66;97550.75;7118831;40;20264;31
2023/10/21 12:54:59;;;;;;;72.23;40.40;;;;;;;18.56;53.32;97543.62;7189132;40;20415;31
2023/10/21 13:05:39;;;;;;;160.00;67.07;;;;;;;18.23;53.82;97545.44;7290922;39;20458;31
2023/10/21 13:11:17;;;;;;;43.23;21.17;;;;;;;18.46;53.84;97555.22;7257942;40;20256;31
2023/10/21 13:16:52;;;;;;;86.57;53.30;;;;;;;18.53;53.31;97553.13;7195600;40;20361;31
2023/10/21 13:22:26;;;;;;;19.13;11.97;;;;;;;18.63;52.79;97549.69;7221814;40;20276;31
2023/10/21 13:28:00;;;;;;;82.00;41.03;;;;;;;18.56;54.22;97566.25;7275897;40;20280;31
2023/10/21 13:33:37;;;;;;;71.67;42.93;;;;;;;18.48;53.64;97563.97;7278511;40;20262;31
2023/10/21 13:39:17;;;;;;;95.37;59.17;;;;;;;18.24;55.34;97562.63;7245770;40;20257;31
2023/10/21 13:44:52;;;;;;;13.03;8.87;;;;;;;18.46;54.49;97552.50;7229652;40;20268;31
2023/10/21 13:50:28;;;;;;;10.70;8.40;;;;;;;18.56;54.09;97549.88;7187311;40;20257;31
2023/10/21 13:55:49;;;;;;;7.77;4.33;;;;;;;18.57;54.95;97562.44;7198989;40;20351;31
2023/10/21 14:01:25;;;;;;;4.90;2.50;;;;;;;18.58;54.07;97555.09;7181591;40;20276;31
2023/10/21 14:07:00;;;;;;;2.33;1.83;;;;;;;18.70;53.25;97558.47;7229763;40;20451;31
2023/10/21 14:12:22;;;;;;;2.35;1.30;;;;;;;18.61;53.30;97566.31;7258416;40;20256;31
2023/10/21 14:17:54;;;;;;;5.17;1.50;;;;;;;18.46;52.44;97577.06;7265802;40;20351;31
2023/10/21 14:23:30;;;;;;;4.33;1.80;;;;;;;18.36;53.11;97579.66;7255670;40;20242;31
2023/10/21 14:28:50;;;;;;;3.47;1.37;;;;;;;18.34;53.09;97579.13;7224406;40;20241;31
2023/10/21 14:34:27;;;;;;;2.77;1.23;;;;;;;18.25;53.74;97583.38;7197865;40;20274;31
2023/10/21 14:39:47;;;;;;;5.95;1.20;;;;;;;18.17;53.67;97591.97;7223201;40;20253;31
2023/10/21 14:45:19;;;;;;;4.60;1.30;;;;;;;18.09;53.49;97592.44;7233590;40;20463;31
2023/10/21 14:50:55;;;;;;;3.93;1.37;;;;;;;18.01;53.00;97589.06;7166895;40;20462;31
2023/10/21 14:56:16;;;;;;;2.77;1.40;;;;;;;17.99;54.28;97599.41;7201958;40;20317;31
2023/10/21 15:01:36;;;;;;;2.65;1.50;;;;;;;18.01;53.91;97597.25;7255900;40;20251;31
2023/10/21 15:07:09;;;;;;;2.85;1.30;;;;;;;17.93;53.97;97602.31;7262982;40;20365;31
2023/10/21 15:17:49;;;;;;;5.10;1.40;;;;;;;17.77;53.95;97611.38;7279216;40;20277;31
2023/10/21 15:23:23;;;;;;;2.70;1.40;;;;;;;17.61;53.57;97599.44;7297668;39;20262;31
2023/10/21 15:33:49;;;;;;;2.10;1.20;;;;;;;17.53;54.84;97616.16;7240594;40;20363;31
2023/10/21 15:44:30;;;;;;;2.67;1.25;;;;;;;17.40;55.66;97624.69;7260253;39;20268;31
2023/10/21 15:54:56;;;;;;;4.10;1.10;;;;;;;17.23;56.34;97641.03;7307941;39;20253;31
2023/10/21 16:00:29;;;;;;;3.13;1.27;;;;;;;17.11;56.70;97645.75;7276721;40;20376;31
2023/10/21 16:11:15;;;;;;;6.20;2.20;;;;;;;16.96;58.29;97659.06;7341229;39;20346;31
2023/10/21 16:16:51;;;;;;;3.83;1.67;;;;;;;16.92;58.43;97658.75;7276094;39;20239;31
2023/10/21 16:22:10;;;;;;;2.80;1.50;;;;;;;16.91;58.96;97673.41;7298304;40;20333;31
2023/10/21 16:27:30;;;;;;;3.97;1.53;;;;;;;16.85;59.54;97670.84;7256013;40;20280;31
2023/10/21 16:33:05;;;;;;;2.83;1.63;;;;;;;16.67;60.71;97678.13;7274360;40;20257;31
2023/10/21 16:43:44;;;;;;;5.43;3.17;;;;;;;16.34;62.34;97698.91;7379938;39;20274;31
2023/10/21 16:49:17;;;;;;;5.30;2.10;;;;;;;16.19;62.99;97711.09;7272669;40;20374;31
2023/10/21 16:54:40;;;;;;;5.10;2.10;;;;;;;16.08;62.86;97717.38;7269840;40;20355;31
2023/10/21 17:00:14;;;;;;;4.37;3.20;;;;;;;15.84;64.23;97726.59;7299457;40;20244;31
2023/10/21 17:05:50;;;;;;;5.37;4.03;;;;;;;15.66;65.47;97734.88;7233299;40;21480;31
2023/10/21 17:11:25;;;;;;;5.10;3.23;;;;;;;15.54;65.09;97747.59;7230532;40;20259;31
2023/10/21 17:16:45;;;;;;;8.47;3.73;;;;;;;15.29;65.56;97758.63;7250046;40;20254;31
2023/10/21 17:22:19;;;;;;;4.83;2.77;;;;;;;15.19;65.97;97764.59;7256775;39;20252;31
2023/10/21 17:27:39;;;;;;;6.00;3.05;;;;;;;15.11;65.48;97773.06;7251127;40;20283;31
2023/10/21 17:33:12;;;;;;;6.80;3.30;;;;;;;15.02;66.13;97773.63;7046073;40;21352;31
2023/10/21 17:38:46;;;;;;;7.87;5.53;;;;;;;15.00;66.60;97779.31;7241314;39;20252;31
2023/10/21 17:44:21;;;;;;;8.75;5.50;;;;;;;15.02;66.67;97784.47;7268350;40;20241;31
2023/10/21 17:49:41;;;;;;;5.33;3.40;;;;;;;15.02;66.05;97801.59;7257213;39;20495;31
2023/10/21 17:55:16;;;;;;;4.25;2.85;;;;;;;15.01;66.50;97788.25;7248113;40;20321;31
2023/10/21 18:00:49;;;;;;;6.93;3.23;;;;;;;15.09;65.27;97798.81;7206914;40;20467;31
2023/10/21 18:06:09;;;;;;;4.83;2.83;;;;;;;15.15;64.47;97811.44;7178665;40;20358;31
2023/10/21 18:11:46;;;;;;;3.60;2.10;;;;;;;15.20;63.47;97812.41;7143810;40;20252;31
2023/10/21 18:17:06;;;;;;;4.30;1.75;;;;;;;15.29;62.48;97824.59;7172224;40;20395;31
2023/10/21 18:22:45;;;;;;;2.93;1.70;;;;;;;15.28;62.86;97822.13;7210338;40;20421;31
2023/10/21 18:33:25;;;;;;;3.30;1.80;;;;;;;15.23;63.06;97825.53;7244559;40;20396;31
2023/10/21 18:44:04;;;;;;;5.30;2.10;;;;;;;15.23;64.01;97840.97;7284415;39;20272;31
2023/10/21 18:54:50;;;;;;;5.07;2.00;;;;;;;15.10;63.78;97847.41;7303568;39;20324;31
2023/10/21 19:00:23;;;;;;;4.23;1.87;;;;;;;15.02;65.19;97860.47;7298282;39;20253;31
2023/10/21 19:06:05;;;;;;;4.17;1.90;;;;;;;14.96;63.90;97864.94;7266824;40;20270;31
2023/10/21 19:11:41;;;;;;;3.90;1.80;;;;;;;14.98;64.46;97868.22;7338482;39;20256;31
2023/10/21 19:17:01;;;;;;;3.73;1.80;;;;;;;15.01;63.80;97878.62;7251266;40;20350;31
2023/10/21 19:22:37;;;;;;;3.53;2.10;;;;;;;14.96;64.06;97874.97;7280845;40;20270;31
2023/10/21 19:28:12;;;;;;;3.80;2.20;;;;;;;14.96;62.96;97885.81;7243561;40;20260;31
2023/10/21 19:33:32;;;;;;;3.13;1.40;;;;;;;14.98;63.83;97892.66;7257213;40;20314;31
2023/10/21 19:39:08;;;;;;;2.93;1.60;;;;;;;14.97;63.51;97888.28;7268952;40;20237;31
2023/10/21 19:44:44;;;;;;;4.93;1.97;;;;;;;14.94;63.24;97898.75;7251832;39;20253;31
2023/10/21 19:50:17;;;;;;;4.03;1.87;;;;;;;14.85;64.21;97901.78;7254901;40;20289;31
2023/10/21 19:55:52;;;;;;;2.83;1.70;;;;;;;14.84;64.21;97902.00;7220707;40;20320;31
2023/10/21 20:01:23;;;;;;;3.90;1.90;;;;;;;14.81;64.12;97913.31;7141534;40;20244;31
2023/10/21 20:06:57;;;;;;;2.60;1.50;;;;;;;14.76;64.11;97916.69;7173670;40;20250;31
2023/10/21 20:12:17;;;;;;;4.87;1.50;;;;;;;14.74;64.06;97923.41;7203590;40;20265;31
2023/10/21 20:17:55;;;;;;;4.10;1.50;;;;;;;14.72;64.50;97931.75;7224765;40;20237;31
2023/10/21 20:23:28;;;;;;;4.73;1.60;;;;;;;14.68;64.12;97940.56;7205807;40;20427;31
2023/10/21 20:28:48;;;;;;;3.10;1.70;;;;;;;14.65;64.60;97941.84;7210649;40;20254;31
2023/10/21 20:34:28;;;;;;;4.23;1.93;;;;;;;14.56;64.79;97939.66;7214615;40;20263;31
2023/10/21 20:39:45;;;;;;;2.60;1.50;;;;;;;14.55;65.12;97949.66;7233220;40;20259;31
2023/10/21 20:45:21;;;;;;;4.50;1.60;;;;;;;14.43;65.51;97963.12;7294834;39;20255;31
2023/10/21 20:50:58;;;;;;;5.97;1.93;;;;;;;14.21;65.38;97966.37;7287308;39;20321;31
2023/10/21 20:56:34;;;;;;;3.20;1.80;;;;;;;14.15;66.18;97959.13;7241884;40;20261;31
2023/10/21 21:01:53;;;;;;;3.73;1.97;;;;;;;14.11;66.84;97975.00;7209281;40;20268;31
2023/10/21 21:07:29;;;;;;;3.10;1.90;;;;;;;13.96;67.28;97974.47;7162191;40;20254;31
2023/10/21 21:13:06;;;;;;;5.07;2.37;;;;;;;13.83;67.46;97969.12;7151448;40;20271;31
2023/10/21 21:18:27;;;;;;;4.87;2.40;;;;;;;13.79;67.69;97979.56;7204820;40;20278;31
2023/10/21 21:24:05;;;;;;;4.93;2.27;;;;;;;13.66;68.06;97974.22;7248382;40;20249;31
2023/10/21 21:29:25;;;;;;;3.50;2.10;;;;;;;13.58;68.25;97977.19;7265629;40;20256;31
2023/10/21 21:34:59;;;;;;;3.70;2.03;;;;;;;13.56;68.27;97981.16;7252998;40;20241;31
2023/10/21 21:40:36;;;;;;;4.33;2.40;;;;;;;13.54;68.50;97993.03;7211975;40;20250;31
2023/10/21 21:45:58;;;;;;;5.95;2.20;;;;;;;13.47;68.67;97988.69;7239036;40;20258;31
2023/10/21 21:51:34;;;;;;;4.27;3.30;;;;;;;13.46;68.83;97996.00;7257719;40;20295;31
2023/10/21 21:57:09;;;;;;;5.33;2.80;;;;;;;13.32;68.25;98007.91;7209567;40;20254;31
2023/10/21 22:02:44;;;;;;;6.10;2.83;;;;;;;13.09;69.15;98013.75;7222016;40;20291;31
2023/10/21 22:08:20;;;;;;;5.73;2.53;;;;;;;13.15;69.48;98014.00;7249134;40;21323;31
2023/10/21 22:13:56;;;;;;;5.70;2.70;;;;;;;13.17;69.42;98004.59;7267648;40;20241;31
2023/10/21 22:19:32;;;;;;;5.93;2.37;;;;;;;13.20;69.87;98006.06;7177208;40;20283;31
2023/10/21 22:24:54;;;;;;;3.90;2.00;;;;;;;13.33;69.30;98004.16;7156400;40;20293;31
2023/10/21 22:30:30;;;;;;;5.55;2.00;;;;;;;13.39;69.38;98000.56;7228869;40;21510;31
2023/10/21 22:36:04;;;;;;;4.23;1.80;;;;;;;13.27;69.40;98002.28;7214029;40;20376;31
2023/10/21 22:41:40;;;;;;;4.03;1.97;;;;;;;13.21;69.98;98015.84;7200269;40;20242;31
2023/10/21 22:47:17;;;;;;;3.33;1.67;;;;;;;13.08;70.22;98016.66;7166197;40;20290;31
2023/10/21 22:52:52;;;;;;;2.77;1.63;;;;;;;13.10;70.00;98022.69;7155767;40;20332;31
2023/10/21 22:58:27;;;;;;;3.23;1.70;;;;;;;13.11;70.39;98026.28;7208127;40;20261;31
2023/10/21 23:04:03;;;;;;;2.97;1.80;;;;;;;13.16;69.78;98031.91;7157690;40;20361;31
2023/10/21 23:09:40;;;;;;;3.07;1.47;;;;;;;13.19;69.76;98034.16;7148185;40;20337;31
2023/10/21 23:15:17;;;;;;;4.10;1.77;;;;;;;13.17;69.54;98045.19;7189895;40;20239;31
2023/10/21 23:20:55;;;;;;;3.50;1.30;;;;;;;13.21;68.81;98046.44;7239657;39;20260;31
2023/10/21 23:26:29;;;;;;;2.90;1.23;;;;;;;13.42;68.26;98059.72;7217145;40;20280;31
2023/10/21 23:32:05;;;;;;;3.57;1.57;;;;;;;13.56;67.18;98057.78;7230269;40;20357;31
2023/10/21 23:37:40;;;;;;;4.35;1.30;;;;;;;13.61;66.84;98063.38;7197342;40;20242;31
2023/10/21 23:43:02;;;;;;;3.10;1.40;;;;;;;13.73;66.21;98069.00;7217530;40;20346;31
2023/10/21 23:48:22;;;;;;;3.73;1.50;;;;;;;13.76;66.45;98079.38;7267634;40;20271;31
2023/10/21 23:53:59;;;;;;;2.43;1.20;;;;;;;13.77;66.47;98078.34;7284297;39;20249;31
2023/10/21 23:59:31;;;;;;;4.70;1.50;;;;;;;13.77;66.16;98078.34;7059776;39;21226;31
